createdAt,value
2019-01-11T00:01:54.776Z,-2.16
2019-01-11T00:04:23.719Z,-2.16
2019-01-11T00:06:52.563Z,-2.16
2019-01-11T00:09:21.403Z,-2.13
2019-01-11T00:11:50.286Z,-2.14
2019-01-11T00:14:19.187Z,-2.12
2019-01-11T00:16:47.998Z,-2.12
2019-01-11T00:19:16.836Z,-2.11
2019-01-11T00:21:45.740Z,-2.10
2019-01-11T00:24:14.727Z,-2.10
2019-01-11T00:26:43.728Z,-2.08
2019-01-11T00:29:12.763Z,-2.08
2019-01-11T00:31:41.789Z,-2.10
2019-01-11T00:34:10.958Z,-2.07
2019-01-11T00:36:39.939Z,-2.04
2019-01-11T00:39:09.687Z,-2.02
2019-01-11T00:41:38.644Z,-1.99
2019-01-11T00:44:07.687Z,-2.00
2019-01-11T00:46:36.741Z,-2.02
2019-01-11T00:49:06.165Z,-2.00
2019-01-11T00:51:37.405Z,-1.97
2019-01-11T00:54:06.585Z,-2.01
2019-01-11T00:56:35.561Z,-1.94
2019-01-11T00:59:05.258Z,-1.99
2019-01-11T01:01:35.983Z,-1.97
2019-01-11T01:04:05.162Z,-1.95
2019-01-11T01:06:34.157Z,-2.00
2019-01-11T01:09:04.870Z,-1.99
2019-01-11T01:11:33.820Z,-1.95
2019-01-11T01:14:04.076Z,-1.91
2019-01-11T01:16:33.144Z,-1.94
2019-01-11T01:19:02.191Z,-1.94
2019-01-11T01:21:31.199Z,-1.96
2019-01-11T01:24:00.144Z,-1.95
2019-01-11T01:26:29.153Z,-1.97
2019-01-11T01:28:58.112Z,-1.95
2019-01-11T01:31:27.478Z,-2.00
2019-01-11T01:33:56.558Z,-2.03
2019-01-11T01:36:25.547Z,-2.05
2019-01-11T01:38:54.560Z,-2.04
2019-01-11T01:41:23.429Z,-2.05
2019-01-11T01:43:52.337Z,-2.06
2019-01-11T01:46:21.280Z,-2.07
2019-01-11T01:48:50.185Z,-2.05
2019-01-11T01:51:19.010Z,-2.00
2019-01-11T01:53:47.822Z,-2.00
2019-01-11T01:56:16.622Z,-1.98
2019-01-11T01:58:46.904Z,-1.95
2019-01-11T02:01:15.901Z,-1.93
2019-01-11T02:03:44.850Z,-1.91
2019-01-11T02:06:13.785Z,-1.88
2019-01-11T02:08:42.591Z,-1.84
2019-01-11T02:11:13.570Z,-1.84
2019-01-11T02:13:42.557Z,-1.85
2019-01-11T02:16:11.451Z,-1.88
2019-01-11T02:18:40.350Z,-1.81
2019-01-11T02:21:09.260Z,-1.81
2019-01-11T02:23:38.225Z,-1.83
2019-01-11T02:26:07.232Z,-1.87
2019-01-11T02:28:36.037Z,-1.85
2019-01-11T02:31:04.943Z,-1.83
2019-01-11T02:33:33.934Z,-1.84
2019-01-11T02:36:02.871Z,-1.83
2019-01-11T02:38:32.331Z,-1.82
2019-01-11T02:41:01.798Z,-1.82
2019-01-11T02:43:30.768Z,-1.82
2019-01-11T02:45:59.797Z,-1.85
2019-01-11T02:48:28.618Z,-1.86
2019-01-11T02:50:57.463Z,-1.83
2019-01-11T02:53:26.337Z,-1.85
2019-01-11T02:55:55.335Z,-1.83
2019-01-11T02:58:24.223Z,-1.81
2019-01-11T03:00:53.193Z,-1.81
2019-01-11T03:03:22.075Z,-1.83
2019-01-11T03:05:51.027Z,-1.84
2019-01-11T03:08:19.861Z,-1.86
2019-01-11T03:10:48.714Z,-1.86
2019-01-11T03:13:17.634Z,-1.85
2019-01-11T03:15:46.474Z,-1.87
2019-01-11T03:18:15.469Z,-1.91
2019-01-11T03:20:44.473Z,-1.89
2019-01-11T03:23:13.306Z,-1.92
2019-01-11T03:25:42.318Z,-1.89
2019-01-11T03:28:11.268Z,-1.91
2019-01-11T03:30:40.240Z,-1.93
2019-01-11T03:33:09.174Z,-1.94
2019-01-11T03:35:38.088Z,-1.94
2019-01-11T03:38:07.061Z,-1.93
2019-01-11T03:40:36.049Z,-1.93
2019-01-11T03:43:06.072Z,-1.89
2019-01-11T03:45:35.003Z,-1.89
2019-01-11T03:48:03.976Z,-1.87
2019-01-11T03:50:32.893Z,-1.85
2019-01-11T03:53:01.776Z,-1.84
2019-01-11T03:55:30.739Z,-1.80
2019-01-11T03:57:59.657Z,-1.81
2019-01-11T04:00:28.643Z,-1.82
2019-01-11T04:02:57.631Z,-1.84
2019-01-11T04:05:26.591Z,-1.82
2019-01-11T04:07:55.365Z,-1.81
2019-01-11T04:10:24.709Z,-1.82
2019-01-11T04:12:53.620Z,-1.83
2019-01-11T04:15:23.430Z,-1.84
2019-01-11T04:18:10.498Z,-1.86
2019-01-11T04:20:39.374Z,-1.84
2019-01-11T04:23:08.361Z,-1.84
2019-01-11T04:25:40.801Z,-1.83
2019-01-11T04:28:09.889Z,-1.80
2019-01-11T04:30:38.992Z,-1.76
2019-01-11T04:33:08.101Z,-1.76
2019-01-11T04:35:37.145Z,-1.75
2019-01-11T04:38:06.041Z,-1.75
2019-01-11T04:40:35.121Z,-1.75
2019-01-11T04:43:04.215Z,-1.77
2019-01-11T04:45:33.227Z,-1.77
2019-01-11T04:48:02.053Z,-1.77
2019-01-11T04:50:31.135Z,-1.77
2019-01-11T04:53:00.147Z,-1.77
2019-01-11T04:55:29.080Z,-1.73
2019-01-11T04:57:58.283Z,-1.70
2019-01-11T05:00:27.376Z,-1.68
2019-01-11T05:02:56.372Z,-1.65
2019-01-11T05:05:25.307Z,-1.66
2019-01-11T05:07:54.344Z,-1.67
2019-01-11T05:10:23.602Z,-1.69
2019-01-11T05:12:52.473Z,-1.65
2019-01-11T05:15:21.440Z,-1.61
2019-01-11T05:17:50.331Z,-1.58
2019-01-11T05:20:19.274Z,-1.57
2019-01-11T05:22:48.322Z,-1.55
2019-01-11T05:25:17.484Z,-1.52
2019-01-11T05:27:46.388Z,-1.52
2019-01-11T05:30:19.832Z,-1.52
2019-01-11T05:32:48.818Z,-1.51
2019-01-11T05:35:17.600Z,-1.49
2019-01-11T05:37:46.451Z,-1.53
2019-01-11T05:40:17.771Z,-1.49
2019-01-11T05:42:47.205Z,-1.52
2019-01-11T05:45:16.883Z,-1.55
2019-01-11T05:47:46.670Z,-1.55
2019-01-11T05:50:23.955Z,-1.54
2019-01-11T05:52:48.178Z,-1.52
2019-01-11T05:55:29.897Z,-1.48
2019-01-11T05:58:23.816Z,-1.43
2019-01-11T06:00:52.655Z,-1.43
2019-01-11T06:03:21.550Z,-1.42
2019-01-11T06:05:50.383Z,-1.42
2019-01-11T06:08:19.344Z,-1.38
2019-01-11T06:10:48.152Z,-1.37
2019-01-11T06:13:17.028Z,-1.37
2019-01-11T06:15:45.936Z,-1.35
2019-01-11T06:18:14.759Z,-1.33
2019-01-11T06:20:44.862Z,-1.30
2019-01-11T06:23:13.895Z,-1.33
2019-01-11T06:25:42.876Z,-1.30
2019-01-11T06:28:11.828Z,-1.27
2019-01-11T06:30:40.848Z,-1.24
2019-01-11T06:33:09.874Z,-1.23
2019-01-11T06:35:38.689Z,-1.24
2019-01-11T06:38:07.502Z,-1.26
2019-01-11T06:40:36.431Z,-1.25
2019-01-11T06:43:05.391Z,-1.21
2019-01-11T06:45:34.336Z,-1.22
2019-01-11T06:48:03.399Z,-1.22
2019-01-11T06:50:36.516Z,-1.20
2019-01-11T06:53:03.583Z,-1.21
2019-01-11T06:55:32.412Z,-1.20
2019-01-11T06:58:01.393Z,-1.12
2019-01-11T07:00:30.413Z,-1.15
2019-01-11T07:03:00.826Z,-1.12
2019-01-11T07:05:32.313Z,-1.06
2019-01-11T07:08:03.475Z,-1.04
2019-01-11T07:10:33.106Z,-0.98
2019-01-11T07:13:02.204Z,-0.97
2019-01-11T07:15:32.091Z,-0.94
2019-01-11T07:18:01.516Z,-0.91
2019-01-11T07:20:30.475Z,-0.90
2019-01-11T07:22:59.489Z,-0.87
2019-01-11T07:25:28.512Z,-0.87
2019-01-11T07:28:02.247Z,-0.86
2019-01-11T07:30:53.350Z,-0.80
2019-01-11T07:33:24.157Z,-0.75
2019-01-11T07:35:57.124Z,-0.74
2019-01-11T07:38:25.995Z,-0.73
2019-01-11T07:40:54.854Z,-0.75
2019-01-11T07:43:23.709Z,-0.73
2019-01-11T07:45:52.654Z,-0.71
2019-01-11T07:48:21.527Z,-0.71
2019-01-11T07:50:50.630Z,-0.72
2019-01-11T07:53:20.228Z,-0.69
2019-01-11T07:55:49.458Z,-0.62
2019-01-11T07:58:18.863Z,-0.63
2019-01-11T08:00:48.803Z,-0.60
2019-01-11T08:03:18.082Z,-0.61
2019-01-11T08:05:49.121Z,-0.57
2019-01-11T08:08:18.836Z,-0.57
2019-01-11T08:10:48.510Z,-0.56
2019-01-11T08:13:19.180Z,-0.50
2019-01-11T08:15:49.324Z,-0.49
2019-01-11T08:18:19.721Z,-0.51
2019-01-11T08:20:48.738Z,-0.51
2019-01-11T08:23:19.187Z,-0.51
2019-01-11T08:26:02.128Z,-0.48
2019-01-11T08:28:43.336Z,-0.45
2019-01-11T08:31:12.554Z,-0.43
2019-01-11T08:33:42.783Z,-0.45
2019-01-11T08:36:13.620Z,-0.45
2019-01-11T08:39:10.899Z,-0.45
2019-01-11T08:41:42.251Z,-0.44
2019-01-11T08:44:12.757Z,-0.42
2019-01-11T08:46:43.332Z,-0.44
2019-01-11T08:49:13.610Z,-0.39
2019-01-11T08:51:45.652Z,-0.39
2019-01-11T08:54:15.113Z,-0.40
2019-01-11T08:56:44.043Z,-0.38
2019-01-11T08:59:12.978Z,-0.36
2019-01-11T09:01:41.971Z,-0.35
2019-01-11T09:04:11.150Z,-0.29
2019-01-11T09:06:41.640Z,-0.29
2019-01-11T09:09:10.590Z,-0.23
2019-01-11T09:11:39.666Z,-0.21
2019-01-11T09:14:10.587Z,-0.25
2019-01-11T09:16:39.745Z,-0.21
2019-01-11T09:19:09.606Z,-0.16
2019-01-11T09:21:41.754Z,-0.11
2019-01-11T09:24:10.678Z,-0.08
2019-01-11T09:26:39.593Z,-0.06
2019-01-11T09:29:09.790Z,-0.03
2019-01-11T09:31:38.775Z,-0.06
2019-01-11T09:34:07.970Z,-0.07
2019-01-11T09:36:37.024Z,-0.06
2019-01-11T09:39:08.923Z,-0.03
2019-01-11T09:41:37.889Z,-0.04
2019-01-11T09:44:07.054Z,-0.01
2019-01-11T09:46:36.121Z,0.03
2019-01-11T09:49:05.196Z,0.05
2019-01-11T09:51:34.339Z,0.09
2019-01-11T09:54:03.383Z,0.11
2019-01-11T09:56:32.536Z,0.09
2019-01-11T09:59:02.187Z,0.09
2019-01-11T10:01:31.296Z,0.11
2019-01-11T10:04:01.428Z,0.10
2019-01-11T10:06:36.936Z,0.10
2019-01-11T10:09:08.510Z,0.11
2019-01-11T10:11:52.270Z,0.13
2019-01-11T10:14:42.052Z,0.13
2019-01-11T10:17:16.512Z,0.14
2019-01-11T10:19:45.358Z,0.15
2019-01-11T10:22:14.271Z,0.05
2019-01-11T10:24:43.145Z,0.05
2019-01-11T10:27:12.035Z,0.04
2019-01-11T10:29:41.330Z,0.04
2019-01-11T10:32:10.303Z,0.08
2019-01-11T10:34:39.234Z,0.09
2019-01-11T10:37:08.249Z,0.12
2019-01-11T10:39:37.533Z,0.15
2019-01-11T10:42:06.571Z,0.12
2019-01-11T10:44:35.696Z,0.14
2019-01-11T10:47:04.704Z,0.15
2019-01-11T10:49:35.612Z,0.18
2019-01-11T10:52:04.691Z,0.20
2019-01-11T10:54:45.631Z,0.18
2019-01-11T10:57:14.712Z,0.23
2019-01-11T10:59:43.668Z,0.25
2019-01-11T11:02:12.706Z,0.30
2019-01-11T11:04:41.842Z,0.30
2019-01-11T11:07:10.848Z,0.31
2019-01-11T11:09:39.655Z,0.38
2019-01-11T11:12:08.643Z,0.44
2019-01-11T11:14:37.582Z,0.50
2019-01-11T11:17:06.595Z,0.55
2019-01-11T11:19:35.587Z,0.49
2019-01-11T11:22:04.458Z,0.53
2019-01-11T11:24:33.612Z,0.55
2019-01-11T11:27:03.415Z,0.54
2019-01-11T11:29:32.399Z,0.53
2019-01-11T11:32:01.459Z,0.49
2019-01-11T11:34:30.546Z,0.56
2019-01-11T11:37:03.128Z,0.59
2019-01-11T11:39:32.100Z,0.61
2019-01-11T11:42:01.017Z,0.61
2019-01-11T11:44:30.094Z,0.62
2019-01-11T11:46:58.895Z,0.66
2019-01-11T11:49:27.922Z,0.70
2019-01-11T11:51:57.168Z,0.73
2019-01-11T11:54:26.207Z,0.79
2019-01-11T11:56:58.174Z,0.76
2019-01-11T11:59:27.066Z,0.77
2019-01-11T12:01:55.990Z,0.83
2019-01-11T12:04:29.246Z,1.00
2019-01-11T12:07:00.494Z,1.03
2019-01-11T12:09:30.467Z,1.11
2019-01-11T12:11:59.651Z,1.20
2019-01-11T12:14:28.675Z,1.19
2019-01-11T12:17:05.366Z,1.14
2019-01-11T12:19:34.280Z,1.15
2019-01-11T12:22:06.593Z,1.22
2019-01-11T12:24:36.130Z,1.18
2019-01-11T12:27:06.505Z,1.16
2019-01-11T12:29:35.889Z,1.18
2019-01-11T12:32:05.057Z,1.21
2019-01-11T12:34:34.197Z,1.25
2019-01-11T12:37:03.532Z,1.29
2019-01-11T12:39:32.742Z,1.28
2019-01-11T12:42:01.671Z,1.37
2019-01-11T12:44:30.710Z,1.39
2019-01-11T12:46:59.706Z,1.33
2019-01-11T12:49:28.872Z,1.37
2019-01-11T12:51:57.807Z,1.37
2019-01-11T12:54:26.842Z,1.35
2019-01-11T12:56:55.904Z,1.35
2019-01-11T12:59:24.948Z,1.33
2019-01-11T13:01:53.933Z,1.31
2019-01-11T13:04:23.124Z,1.35
2019-01-11T13:06:52.139Z,1.33
2019-01-11T13:09:21.458Z,1.30
2019-01-11T13:11:50.632Z,1.35
2019-01-11T13:14:19.465Z,1.37
2019-01-11T13:16:48.344Z,1.32
2019-01-11T13:19:17.135Z,1.28
2019-01-11T13:21:46.176Z,1.25
2019-01-11T13:24:14.935Z,1.23
2019-01-11T13:26:43.695Z,1.27
2019-01-11T13:29:12.512Z,1.27
2019-01-11T13:31:41.268Z,1.30
2019-01-11T13:34:10.066Z,1.32
2019-01-11T13:36:38.944Z,1.27
2019-01-11T13:39:11.262Z,1.26
2019-01-11T13:41:40.100Z,1.28
2019-01-11T13:44:08.964Z,1.25
2019-01-11T13:46:37.783Z,1.26
2019-01-11T13:49:06.721Z,1.24
2019-01-11T13:51:35.496Z,1.20
2019-01-11T13:54:04.708Z,1.16
2019-01-11T13:56:33.544Z,1.17
2019-01-11T13:59:02.435Z,1.18
2019-01-11T14:01:31.302Z,1.17
2019-01-11T14:04:00.185Z,1.19
2019-01-11T14:06:29.006Z,1.22
2019-01-11T14:08:57.833Z,1.25
2019-01-11T14:11:26.642Z,1.27
2019-01-11T14:13:55.368Z,1.31
2019-01-11T14:16:24.198Z,1.35
2019-01-11T14:18:53.266Z,1.33
2019-01-11T14:21:22.032Z,1.36
2019-01-11T14:23:50.814Z,1.37
2019-01-11T14:26:19.577Z,1.36
2019-01-11T14:28:48.406Z,1.34
2019-01-11T14:31:17.216Z,1.33
2019-01-11T14:33:45.994Z,1.33
2019-01-11T14:36:14.838Z,1.31
2019-01-11T14:38:43.720Z,1.26
2019-01-11T14:41:12.958Z,1.27
2019-01-11T14:43:41.720Z,1.24
2019-01-11T14:46:10.513Z,1.26
2019-01-11T14:48:39.460Z,1.22
2019-01-11T14:51:08.520Z,1.24
2019-01-11T14:53:37.290Z,1.21
2019-01-11T14:56:06.126Z,1.23
2019-01-11T14:58:35.012Z,1.24
2019-01-11T15:01:03.927Z,1.25
2019-01-11T15:03:32.792Z,1.25
2019-01-11T15:06:01.566Z,1.25
2019-01-11T15:08:30.425Z,1.25
2019-01-11T15:10:59.244Z,1.22
2019-01-11T15:13:28.120Z,1.22
2019-01-11T15:15:56.882Z,1.25
2019-01-11T15:18:25.777Z,1.18
2019-01-11T15:20:54.592Z,1.15
2019-01-11T15:23:23.462Z,1.13
2019-01-11T15:25:52.295Z,1.11
2019-01-11T15:28:21.294Z,1.10
2019-01-11T15:30:50.241Z,1.09
2019-01-11T15:33:19.078Z,1.06
2019-01-11T15:35:47.850Z,1.14
2019-01-11T15:38:16.729Z,1.15
2019-01-11T15:40:45.557Z,1.18
2019-01-11T15:43:14.752Z,1.20
2019-01-11T15:45:43.631Z,1.18
2019-01-11T15:48:17.530Z,1.20
2019-01-11T15:50:52.089Z,1.21
2019-01-11T15:53:20.884Z,1.24
2019-01-11T15:55:51.451Z,1.22
2019-01-11T15:58:20.500Z,1.24
2019-01-11T16:00:49.584Z,1.24
2019-01-11T16:03:18.624Z,1.31
2019-01-11T16:05:48.211Z,1.36
2019-01-11T16:08:17.169Z,1.37
2019-01-11T16:11:20.894Z,1.39
2019-01-11T16:14:14.586Z,1.39
2019-01-11T16:16:59.606Z,1.42
2019-01-11T16:19:28.542Z,1.46
2019-01-11T16:21:57.720Z,1.49
2019-01-11T16:24:27.153Z,1.49
2019-01-11T16:26:56.002Z,1.47
2019-01-11T16:29:24.894Z,1.45
2019-01-11T16:31:54.014Z,1.44
2019-01-11T16:34:22.897Z,1.43
2019-01-11T16:36:51.663Z,1.47
2019-01-11T16:39:20.602Z,1.47
2019-01-11T16:41:49.448Z,1.40
2019-01-11T16:44:18.661Z,1.38
2019-01-11T16:46:47.724Z,1.35
2019-01-11T16:49:17.318Z,1.33
2019-01-11T16:51:46.319Z,1.31
2019-01-11T16:54:15.503Z,1.32
2019-01-11T16:57:05.833Z,1.33
2019-01-11T16:59:45.943Z,1.31
2019-01-11T17:02:15.283Z,1.33
2019-01-11T17:11:37.046Z,1.33
2019-01-11T17:14:06.315Z,1.39
2019-01-11T17:16:35.413Z,1.34
2019-01-11T17:19:04.391Z,1.31
2019-01-11T17:21:33.335Z,1.36
2019-01-11T17:24:02.081Z,1.37
2019-01-11T17:26:30.883Z,1.37
2019-01-11T17:32:55.577Z,1.40
2019-01-11T17:35:26.249Z,1.45
2019-01-11T17:37:55.153Z,1.46
2019-01-11T17:40:23.948Z,1.47
2019-01-11T17:42:52.747Z,1.54
2019-01-11T17:45:21.607Z,1.56
2019-01-11T17:47:50.645Z,1.53
2019-01-11T17:50:19.882Z,1.59
2019-01-11T17:52:48.775Z,1.57
2019-01-11T17:55:18.013Z,1.55
2019-01-11T17:57:46.855Z,1.59
2019-01-11T18:00:17.324Z,1.65
2019-01-11T18:02:46.200Z,1.68
2019-01-11T18:05:16.379Z,1.69
2019-01-11T18:07:45.650Z,1.69
2019-01-11T18:10:14.495Z,1.72
2019-01-11T18:12:43.334Z,1.73
2019-01-11T18:15:19.233Z,1.69
2019-01-11T18:17:48.613Z,1.74
2019-01-11T18:20:23.241Z,1.73
2019-01-11T18:22:52.158Z,1.76
2019-01-11T18:25:21.131Z,1.82
2019-01-11T18:27:49.861Z,1.83
2019-01-11T18:30:19.353Z,1.79
2019-01-11T18:32:48.705Z,1.79
2019-01-11T18:35:17.970Z,1.81
2019-01-11T18:37:46.901Z,1.83
2019-01-11T18:40:18.439Z,1.82
2019-01-11T18:42:47.640Z,1.83
2019-01-11T18:45:16.577Z,1.86
2019-01-11T18:47:45.545Z,1.89
2019-01-11T18:50:17.062Z,1.93
2019-01-11T18:52:46.270Z,1.93
2019-01-11T18:55:15.206Z,1.94
2019-01-11T18:57:45.669Z,1.93
2019-01-11T19:00:17.205Z,1.94
2019-01-11T19:02:46.263Z,1.95
2019-01-11T19:05:15.773Z,2.03
2019-01-11T19:07:46.219Z,2.01
2019-01-11T19:10:17.320Z,2.02
2019-01-11T19:12:46.799Z,2.04
2019-01-11T19:15:18.104Z,2.07
2019-01-11T19:17:47.150Z,2.09
2019-01-11T19:20:22.617Z,2.06
2019-01-11T19:22:51.621Z,2.08
2019-01-11T19:25:20.956Z,2.13
2019-01-11T19:27:50.690Z,2.14
2019-01-11T19:30:21.599Z,2.14
2019-01-11T19:32:51.073Z,2.15
2019-01-11T19:35:20.301Z,2.21
2019-01-11T19:37:49.518Z,2.26
2019-01-11T19:40:18.513Z,2.25
2019-01-11T19:42:47.684Z,2.22
2019-01-11T19:45:16.779Z,2.22
2019-01-11T19:47:45.715Z,2.24
2019-01-11T19:50:17.262Z,2.22
2019-01-11T19:52:46.275Z,2.25
2019-01-11T19:55:15.874Z,2.26
2019-01-11T19:57:45.622Z,2.24
2019-01-11T20:00:17.663Z,2.26
2019-01-11T20:02:47.002Z,2.23
2019-01-11T20:05:16.099Z,2.18
2019-01-11T20:07:45.027Z,2.24
2019-01-11T20:10:20.268Z,2.28
2019-01-11T20:12:49.494Z,2.29
2019-01-11T20:15:18.512Z,2.29
2019-01-11T20:17:47.479Z,2.23
2019-01-11T20:20:16.490Z,2.19
2019-01-11T20:22:45.259Z,2.24
2019-01-11T20:25:19.051Z,2.23
2019-01-11T20:27:48.729Z,2.25
2019-01-11T20:30:19.735Z,2.23
2019-01-11T20:32:49.453Z,2.24
2019-01-11T20:35:18.701Z,2.25
2019-01-11T20:37:47.961Z,2.25
2019-01-11T20:40:17.148Z,2.30
2019-01-11T20:42:46.107Z,2.32
2019-01-11T20:45:16.943Z,2.39
2019-01-11T20:47:46.018Z,2.38
2019-01-11T20:50:17.676Z,2.40
2019-01-11T20:52:46.901Z,2.45
2019-01-11T20:55:16.210Z,2.49
2019-01-11T20:57:46.092Z,2.51
2019-01-11T21:00:19.136Z,2.53
2019-01-11T21:02:49.271Z,2.59
2019-01-11T21:05:18.688Z,2.65
2019-01-11T21:07:51.350Z,2.71
2019-01-11T21:10:21.138Z,2.77
2019-01-11T21:12:50.844Z,2.83
2019-01-11T21:15:20.439Z,2.83
2019-01-11T21:17:50.290Z,2.81
2019-01-11T21:20:19.726Z,2.77
2019-01-11T21:22:49.000Z,2.80
2019-01-11T21:25:18.194Z,2.78
2019-01-11T21:27:47.300Z,2.75
2019-01-11T21:30:21.650Z,2.74
2019-01-11T21:32:50.658Z,2.69
2019-01-11T21:35:19.570Z,2.63
2019-01-11T21:37:49.098Z,2.56
2019-01-11T21:40:19.250Z,2.52
2019-01-11T21:42:48.901Z,2.51
2019-01-11T21:45:18.437Z,2.48
2019-01-11T21:47:47.702Z,2.44
2019-01-11T21:50:24.365Z,2.41
2019-01-11T21:52:53.227Z,2.39
2019-01-11T21:55:22.684Z,2.41
2019-01-11T21:57:51.696Z,2.42
2019-01-11T22:00:40.924Z,2.39
2019-01-11T22:03:18.254Z,2.34
2019-01-11T22:05:47.140Z,2.36
2019-01-11T22:08:16.355Z,2.38
2019-01-11T22:10:45.287Z,2.49
2019-01-11T22:13:15.295Z,2.65
2019-01-11T22:15:47.223Z,2.74
2019-01-11T22:18:16.203Z,2.77
2019-01-11T22:20:44.936Z,2.77
2019-01-11T22:23:13.751Z,2.75
2019-01-11T22:25:42.556Z,2.74
2019-01-11T22:28:11.328Z,2.72
2019-01-11T22:30:41.354Z,2.73
2019-01-11T22:33:10.287Z,2.70
2019-01-11T22:35:39.092Z,2.67
2019-01-11T22:38:08.179Z,2.67
2019-01-11T22:40:37.206Z,2.72
2019-01-11T22:43:06.418Z,2.73
2019-01-11T22:45:35.274Z,2.74
2019-01-11T22:48:04.167Z,2.78
2019-01-11T22:50:32.977Z,2.81
2019-01-11T22:53:01.801Z,2.79
2019-01-11T22:55:30.668Z,2.76
2019-01-11T22:57:59.459Z,2.82
2019-01-11T23:00:38.630Z,2.88
2019-01-11T23:03:11.607Z,2.94
2019-01-11T23:05:40.450Z,3.02
2019-01-11T23:08:12.582Z,3.09
2019-01-11T23:11:21.684Z,3.11
2019-01-11T23:13:50.583Z,3.08
2019-01-11T23:16:30.905Z,3.04
2019-01-11T23:18:59.878Z,3.07
2019-01-11T23:21:28.650Z,3.07
2019-01-11T23:23:57.925Z,3.03
2019-01-11T23:26:26.707Z,2.97
2019-01-11T23:28:55.519Z,2.93
2019-01-11T23:31:25.590Z,2.90
2019-01-11T23:33:54.563Z,2.88
2019-01-11T23:36:23.513Z,2.89
2019-01-11T23:38:52.502Z,2.89
2019-01-11T23:41:21.437Z,2.84
2019-01-11T23:43:50.402Z,2.86
2019-01-11T23:46:19.244Z,2.90
2019-01-11T23:48:48.100Z,2.97
2019-01-11T23:51:16.976Z,2.99
2019-01-11T23:53:45.949Z,2.95
2019-01-11T23:56:14.730Z,2.92
2019-01-11T23:58:43.496Z,2.92
